KTOL/TOL METAR and TAF weather

Enter ICAO airport designator
Station Type Date Time Source
KTOL METAR 2019/07/15 20:08 UTC NOAA

KTOL 152008Z 11003KT 10SM -RA SCT043 BKN060 BKN085 26/22 A3003 RMK AO2 LTG DSNT ALQDS P0005 T02560217


Station Type Date Time Source
KTOL Decoded METAR 2019/07/15 20:08 UTC NOAA

TOLEDO EXPRESS AIRPORT, OH, United States (KTOL) 41-35N 083-48W 210M
Jul 15, 2019 - 04:08 PM EDT / 2019.07.15 2008 UTC
Wind: from the ESE (110 degrees) at 3 MPH (3 KT):0
Visibility: 10 mile(s):0
Sky conditions: mostly cloudy
Weather: light rain; Lightning observed
Precipitation last hour: 0.05 inches
Temperature: 78.1 F (25.6 C)
Dew Point: 71.1 F (21.7 C)
Relative Humidity: 79%
Pressure (altimeter): 30.03 in. Hg (1016 hPa)
ob: KTOL 152008Z 11003KT 10SM -RA SCT043 BKN060 BKN085 26/22 A3003 RMK AO2 LTG DSNT ALQDS P0005 T02560217
cycle: 20

Station Type Date Time Source
KTOL TAF 2019/07/15 18:28 UTC NOAA

TAF KTOL 151726Z 1518/1618 20005KT P6SM SCT040
FM151900 21007KT P6SM VCTS BKN040CB
TEMPO 1519/1521 4SM -TSRA BKN040CB
FM152300 24006KT P6SM BKN100
FM161400 VRB03KT P6SM BKN050

Example: see airport list